createdAt,value
2022-10-01T00:01:24.398Z,17.30
2022-10-01T00:03:50.995Z,17.95
2022-10-01T00:06:20.145Z,17.73
2022-10-01T00:08:49.380Z,18.25
2022-10-01T00:11:24.767Z,20.88
2022-10-01T00:13:52.389Z,17.80
2022-10-01T00:16:21.980Z,19.90
2022-10-01T00:18:49.676Z,16.92
2022-10-01T00:21:20.898Z,18.73
2022-10-01T00:23:48.449Z,18.45
2022-10-01T00:26:21.910Z,18.67
2022-10-01T00:28:55.580Z,18.83
2022-10-01T00:31:23.442Z,16.10
2022-10-01T00:33:53.273Z,16.45
2022-10-01T00:36:20.434Z,18.65
2022-10-01T00:38:48.953Z,15.68
2022-10-01T00:41:17.408Z,18.70
2022-10-01T00:43:46.787Z,14.93
2022-10-01T00:46:22.447Z,14.65
2022-10-01T00:49:19.064Z,15.65
2022-10-01T00:51:50.880Z,13.02
2022-10-01T00:54:22.382Z,16.02
2022-10-01T00:56:53.984Z,13.85
2022-10-01T00:59:20.982Z,14.25
2022-10-01T01:01:48.845Z,14.93
2022-10-01T01:04:18.139Z,15.40
2022-10-01T01:06:53.835Z,15.95
2022-10-01T01:09:22.760Z,17.98
2022-10-01T01:12:16.843Z,16.70
2022-10-01T01:14:56.173Z,15.90
2022-10-01T01:17:49.264Z,19.90
2022-10-01T01:20:51.762Z,17.05
2022-10-01T01:23:18.452Z,21.27
2022-10-01T01:26:04.959Z,18.70
2022-10-01T01:28:38.027Z,15.55
2022-10-01T01:31:13.102Z,18.77
2022-10-01T01:33:43.690Z,18.63
2022-10-01T01:36:19.307Z,17.05
2022-10-01T01:38:54.916Z,18.13
2022-10-01T01:41:27.142Z,18.48
2022-10-01T01:43:56.981Z,16.40
2022-10-01T01:46:33.950Z,17.02
2022-10-01T01:49:02.235Z,15.25
2022-10-01T01:51:43.659Z,15.70
2022-10-01T01:54:10.347Z,15.18
2022-10-01T01:56:37.139Z,16.73
2022-10-01T01:59:04.056Z,16.08
2022-10-01T02:01:42.463Z,15.63
2022-10-01T02:04:21.985Z,14.57
2022-10-01T02:07:16.695Z,17.05
2022-10-01T02:10:25.598Z,14.65
2022-10-01T02:13:39.087Z,13.30
2022-10-01T02:16:31.645Z,13.82
2022-10-01T02:19:46.256Z,14.40
2022-10-01T02:22:19.855Z,13.00
2022-10-01T02:24:53.071Z,12.80
2022-10-01T02:27:29.896Z,13.82
2022-10-01T02:30:00.617Z,14.95
2022-10-01T02:32:31.779Z,15.27
2022-10-01T02:35:00.374Z,13.25
2022-10-01T02:37:28.363Z,16.13
2022-10-01T02:39:57.631Z,14.52
2022-10-01T02:42:28.827Z,13.55
2022-10-01T02:45:02.589Z,12.98
2022-10-01T02:47:40.871Z,13.07
2022-10-01T02:50:09.097Z,12.52
2022-10-01T02:53:00.091Z,13.88
2022-10-01T02:55:31.627Z,14.93
2022-10-01T02:57:58.630Z,13.80
2022-10-01T03:00:27.049Z,16.15
2022-10-01T03:02:54.718Z,16.25
2022-10-01T03:05:22.157Z,16.70
2022-10-01T03:07:48.862Z,15.73
2022-10-01T03:10:16.301Z,17.73
2022-10-01T03:12:45.190Z,18.25
2022-10-01T03:15:13.383Z,15.45
2022-10-01T03:17:41.095Z,13.90
2022-10-01T03:20:09.062Z,13.45
2022-10-01T03:22:35.814Z,15.10
2022-10-01T03:25:02.756Z,13.15
2022-10-01T03:27:31.734Z,14.13
2022-10-01T03:29:58.294Z,16.23
2022-10-01T03:32:24.911Z,14.98
2022-10-01T03:34:51.494Z,17.40
2022-10-01T03:37:18.094Z,16.33
2022-10-01T03:39:45.783Z,17.60
2022-10-01T03:42:12.372Z,16.67
2022-10-01T03:44:39.026Z,14.90
2022-10-01T03:47:07.267Z,15.23
2022-10-01T03:49:34.698Z,14.40
2022-10-01T03:52:02.421Z,15.07
2022-10-01T03:54:31.258Z,16.42
2022-10-01T03:56:57.960Z,16.42
2022-10-01T03:59:26.304Z,15.35
2022-10-01T04:01:55.358Z,16.60
2022-10-01T04:04:22.037Z,15.35
2022-10-01T04:06:48.889Z,15.02
2022-10-01T04:09:15.508Z,14.30
2022-10-01T04:11:42.073Z,14.02
2022-10-01T04:14:09.117Z,14.10
2022-10-01T04:16:36.419Z,14.60
2022-10-01T04:19:04.699Z,15.38
2022-10-01T04:21:31.516Z,14.70
2022-10-01T04:23:59.748Z,18.17
2022-10-01T04:26:29.078Z,19.23
2022-10-01T04:28:55.668Z,17.63
2022-10-01T04:31:25.152Z,14.77
2022-10-01T04:33:56.605Z,14.45
2022-10-01T04:36:24.610Z,17.60
2022-10-01T04:39:00.845Z,18.90
2022-10-01T04:41:30.871Z,20.60
2022-10-01T04:43:59.453Z,20.00
2022-10-01T04:46:26.180Z,17.17
2022-10-01T04:48:52.816Z,15.43
2022-10-01T04:51:19.436Z,16.00
2022-10-01T04:53:46.088Z,15.68
2022-10-01T04:56:12.688Z,14.75
2022-10-01T04:58:39.453Z,24.70
2022-10-01T05:01:06.214Z,25.95
2022-10-01T05:03:32.887Z,25.52
2022-10-01T05:06:01.091Z,19.75
2022-10-01T05:08:27.701Z,23.33
2022-10-01T05:10:54.386Z,21.30
2022-10-01T05:13:21.064Z,20.65
2022-10-01T05:15:52.240Z,25.38
2022-10-01T05:18:19.198Z,21.48
